Nucla, CO

7:24 AM MST on December 18, 2014 (GMT -0700)
RAWS SANBORN PARK CO US | Change Station
CLOSE
Current Station
Personal Weather Station
Location: Norwood, CO
Elevation: 7895 ft
Nearby Weather Stations
Active Advisory: Special Statement Active Notice: Local Storm Report

Elev 7895 ft 38.19 °N, 108.22 °W | Updated 30 minutes ago

Mostly Cloudy
Mostly Cloudy
25 °F
Feels Like 25 °F
N
0
Wind Variable Wind from North
Gusts 3.0 mph

Today
High -- | Low -- °F
--% Chance of Precip.
Yesterday
High -- | Low -- °F
Precip. -- in
7:24 AM 4:54 PM
Waning Crescent, 14% visible
Pressure 30.15 in
Visibility 4.0 miles
Clouds Mostly Cloudy 2700 ft
Overcast 4500 ft
Windchill 25 °F
Dew Point 24 °F
Humidity 95%
Rainfall 0.02 in
Snow Depth Not available.
UV 0 out of 12
Pollen .10 out of 12
Air Quality Not available.
Flu Activity Not available.
METAR KAIB 181415Z AUTO 11003KT 4SM -SN BKN027 OVC045 00/00 A3015 RMK AO2

More Conditions Fewer Conditions

Pressure 30.15 in
Visibility 4.0 miles
Clouds Mostly Cloudy 2700 ft
Overcast 4500 ft
Windchill 25 °F
Dew Point 24 °F
Humidity 95%
Rainfall 0.02 in
Snow Depth Not available.
UV 0 out of 12
Pollen .10 out of 12
Air Quality Not available.
Flu Activity Not available.
METAR KAIB 181415Z AUTO 11003KT 4SM -SN BKN027 OVC045 00/00 A3015 RMK AO2

More Conditions Fewer Conditions

10-Day Weather Forecast

Almanac

Astronomy

Dec. 18, 2014 Rise Set
Actual Time
Civil Twilight
Nautical Twilight
Astronomical Twilight
Moon
Length of Visible Light
Length of Day
Tomorrow will be .
, % of the Moon is Illuminated

Today's Extremes

State Highs State Lows

Community

WunderPhotos

Upload Photos

1,778,929 photos uploaded!

WunderBlogs® & News

Nearby

Air Quality

  Air Quality AQ Index Pollutant
Not available.

Snow Depth

Station Depth Elevation

Earthquake Activity

City Distance Mag. Time & Date
Minimum magnitude displayed is 2.5.

Coastal Water Temperatures

Place Temperature

Nearby Weather Stations